Time;durP1;ratioP1;P1;durP2;ratioP2;P2;SDS_P1;SDS_P2;PMS_P1;PMS_P2;Temp;Humidity;BMP_temperature;BMP_pressure;BME280_temperature;BME280_humidity;BME280_pressure;Samples;Min_cycle;Max_cycle;Signal;HPM_P1;HPM_P2
2022/03/10 00:02:23;;;;;;;21.55;9.73;;;;;;;-1.97;81.57;101287.25;5004894;28;20041;-71
2022/03/10 00:04:48;;;;;;;17.25;10.27;;;;;;;-2.10;82.00;101299.19;5009853;28;20473;-72
2022/03/10 00:07:15;;;;;;;17.77;10.30;;;;;;;-2.24;83.02;101295.72;5010840;28;20382;-73
2022/03/10 00:09:41;;;;;;;17.75;10.95;;;;;;;-2.11;83.65;101290.56;5010913;28;20081;-73
2022/03/10 00:12:06;;;;;;;18.48;11.77;;;;;;;-2.35;84.24;101287.28;5009020;28;20040;-72
2022/03/10 00:14:32;;;;;;;14.38;9.38;;;;;;;-2.28;83.92;101291.16;5010731;28;20046;-73
2022/03/10 00:16:58;;;;;;;16.65;11.13;;;;;;;-2.19;84.52;101291.78;5008211;28;20046;-73
2022/03/10 00:19:23;;;;;;;16.23;11.05;;;;;;;-2.16;83.71;101287.69;5010025;28;20038;-72
2022/03/10 00:21:49;;;;;;;23.75;12.90;;;;;;;-2.13;82.94;101282.78;5009734;28;20045;-72
2022/03/10 00:24:23;;;;;;;23.00;12.20;;;;;;;-1.96;82.34;101283.84;5011642;28;20029;-73
2022/03/10 00:26:48;;;;;;;18.15;12.15;;;;;;;-1.86;81.34;101271.59;5009318;28;20034;-72
2022/03/10 00:29:14;;;;;;;21.83;12.38;;;;;;;-1.87;81.84;101282.66;5009907;28;20425;-72
2022/03/10 00:31:42;;;;;;;14.55;10.88;;;;;;;-1.82;81.80;101263.28;5006646;28;20433;-72
2022/03/10 00:34:08;;;;;;;21.92;12.13;;;;;;;-1.77;80.80;101267.03;5008808;28;20045;-72
2022/03/10 00:36:34;;;;;;;17.98;11.63;;;;;;;-1.47;79.87;101272.34;5007261;28;20513;-72
2022/03/10 00:38:59;;;;;;;18.77;10.15;;;;;;;-1.56;80.32;101277.78;5008670;28;20038;-72
2022/03/10 00:41:25;;;;;;;23.05;13.40;;;;;;;-1.59;79.88;101272.44;5009672;28;20049;-71
2022/03/10 00:43:50;;;;;;;17.60;10.65;;;;;;;-1.45;79.48;101278.44;5008969;28;20064;-72
2022/03/10 00:46:16;;;;;;;14.60;10.18;;;;;;;-1.40;78.30;101269.34;5009813;28;20038;-71
2022/03/10 00:48:41;;;;;;;20.77;10.95;;;;;;;-1.54;78.82;101278.78;5008702;28;20032;-71
2022/03/10 00:51:07;;;;;;;20.25;11.75;;;;;;;-1.76;78.88;101272.25;5009845;28;20491;-74
2022/03/10 00:53:33;;;;;;;18.50;10.98;;;;;;;-1.72;79.40;101275.94;5006714;28;20034;-72
2022/03/10 00:55:59;;;;;;;17.77;13.05;;;;;;;-1.42;79.06;101273.50;5008524;28;20046;-72
2022/03/10 00:58:24;;;;;;;19.65;11.18;;;;;;;-1.33;77.75;101274.06;5009563;28;20042;-72
2022/03/10 01:00:51;;;;;;;16.63;11.63;;;;;;;-1.22;77.29;101269.56;5008302;28;20048;-72
2022/03/10 01:03:17;;;;;;;17.77;10.73;;;;;;;-1.73;78.44;101264.75;5008467;28;20060;-71
2022/03/10 01:05:43;;;;;;;20.42;9.48;;;;;;;-1.41;78.01;101267.53;5008725;28;20524;-72
2022/03/10 01:08:08;;;;;;;21.30;13.18;;;;;;;-1.76;77.31;101256.81;5008551;28;20055;-71
2022/03/10 01:10:34;;;;;;;17.10;11.02;;;;;;;-1.55;75.57;101265.00;5008434;28;20046;-71
2022/03/10 01:12:59;;;;;;;14.02;9.10;;;;;;;-1.63;76.33;101266.22;5008759;28;20054;-71
2022/03/10 01:15:28;;;;;;;18.25;10.88;;;;;;;-1.47;75.38;101273.22;5010102;28;20026;-71
2022/03/10 01:17:54;;;;;;;16.70;10.68;;;;;;;-1.68;75.67;101256.44;5008377;28;20045;-71
2022/03/10 01:20:22;;;;;;;15.15;9.13;;;;;;;-1.82;74.58;101261.59;5006827;28;20045;-71
2022/03/10 01:22:49;;;;;;;18.50;10.48;;;;;;;-1.91;74.39;101251.59;5008290;28;20045;-72
2022/03/10 01:25:16;;;;;;;14.57;8.75;;;;;;;-1.95;73.89;101270.19;5007839;28;20083;-72
2022/03/10 01:27:41;;;;;;;13.95;8.95;;;;;;;-1.83;72.22;101259.81;5008160;28;20022;-72
2022/03/10 01:30:08;;;;;;;14.65;8.57;;;;;;;-1.81;72.38;101273.66;5009727;28;20417;-72
2022/03/10 01:32:35;;;;;;;15.07;7.55;;;;;;;-1.65;71.76;101274.63;5008056;28;20038;-71
2022/03/10 01:35:01;;;;;;;20.67;9.30;;;;;;;-1.50;69.77;101268.78;5009346;28;20049;-71
2022/03/10 01:37:27;;;;;;;12.88;7.45;;;;;;;-1.83;69.97;101254.66;5006769;28;20046;-72
2022/03/10 01:39:53;;;;;;;12.55;7.88;;;;;;;-1.75;69.85;101271.47;5006981;28;20038;-71
2022/03/10 01:42:18;;;;;;;14.35;8.25;;;;;;;-1.66;69.79;101277.97;5008918;28;20032;-71
2022/03/10 01:44:44;;;;;;;13.38;7.93;;;;;;;-1.48;68.59;101284.28;5006865;28;20064;-72
2022/03/10 01:47:10;;;;;;;11.88;7.38;;;;;;;-1.45;68.99;101278.44;5006050;28;20441;-71
2022/03/10 01:49:36;;;;;;;14.90;8.70;;;;;;;-1.25;67.60;101280.56;5006722;28;20045;-72
2022/03/10 01:52:03;;;;;;;10.93;7.60;;;;;;;-1.31;68.25;101277.63;5008476;28;20068;-72
2022/03/10 01:54:28;;;;;;;16.55;10.27;;;;;;;-1.11;69.53;101284.00;5008595;28;20034;-71
2022/03/10 01:56:54;;;;;;;17.20;10.57;;;;;;;-1.10;70.33;101280.59;5004612;28;20061;-71
2022/03/10 01:59:20;;;;;;;15.98;10.15;;;;;;;-1.03;70.63;101287.94;5008509;28;20045;-72
2022/03/10 02:01:46;;;;;;;14.10;10.38;;;;;;;-1.00;71.59;101284.66;5007683;28;20049;-72
2022/03/10 02:04:13;;;;;;;21.98;14.40;;;;;;;-1.08;74.59;101282.50;5008750;28;20476;-73
2022/03/10 02:06:38;;;;;;;18.27;10.75;;;;;;;-1.24;75.07;101287.50;5008067;28;20485;-72
2022/03/10 02:11:48;;;;;;;24.55;13.38;;;;;;;-1.43;76.59;101282.88;5007479;28;20123;-73
2022/03/10 02:19:43;;;;;;;18.98;13.18;;;;;;;-1.13;77.42;101283.00;5005001;28;20474;-72
2022/03/10 02:22:13;;;;;;;23.17;14.82;;;;;;;-1.17;77.38;101278.44;5003654;28;20054;-72
2022/03/10 02:24:41;;;;;;;19.00;13.70;;;;;;;-1.03;75.98;101287.03;5007654;28;20037;-72
2022/03/10 02:27:24;;;;;;;15.70;10.52;;;;;;;-1.22;74.55;101287.59;5007732;28;20112;-73
2022/03/10 02:29:55;;;;;;;21.00;12.90;;;;;;;-1.29;76.36;101279.50;5005104;28;20104;-72
2022/03/10 02:32:21;;;;;;;17.45;11.70;;;;;;;-0.99;75.48;101291.56;5003368;28;20405;-72
2022/03/10 02:34:48;;;;;;;17.25;12.52;;;;;;;-1.12;75.03;101295.09;5013554;28;20341;-73
2022/03/10 02:37:14;;;;;;;20.10;12.38;;;;;;;-0.97;74.39;101300.28;5013809;28;20042;-72
2022/03/10 02:39:41;;;;;;;24.80;14.15;;;;;;;-0.84;74.74;101295.09;5013770;28;20141;-71
2022/03/10 02:42:08;;;;;;;20.10;14.45;;;;;;;-0.87;74.79;101293.22;5014142;28;20026;-72
2022/03/10 02:44:33;;;;;;;25.17;14.43;;;;;;;-0.93;75.69;101294.53;5013907;28;20477;-74
2022/03/10 02:47:01;;;;;;;16.90;12.18;;;;;;;-1.01;76.02;101296.63;5013507;28;20053;-71
2022/03/10 02:49:26;;;;;;;19.67;12.75;;;;;;;-0.97;75.65;101288.28;5008283;28;20072;-72
2022/03/10 02:51:52;;;;;;;18.55;11.63;;;;;;;-0.85;75.98;101301.00;5014155;28;20421;-73
2022/03/10 02:54:17;;;;;;;21.60;14.00;;;;;;;-1.04;76.56;101296.44;5011316;28;20038;-72
2022/03/10 02:56:43;;;;;;;16.50;11.70;;;;;;;-0.99;76.51;101301.88;5011394;28;20045;-72
2022/03/10 02:59:10;;;;;;;18.25;10.82;;;;;;;-0.89;75.54;101299.03;5012276;28;20043;-72
2022/03/10 03:01:36;;;;;;;27.92;12.82;;;;;;;-0.91;74.51;101295.50;5014182;28;20045;-72
2022/03/10 03:04:01;;;;;;;15.73;10.88;;;;;;;-1.20;72.23;101292.03;5014389;28;20386;-72
2022/03/10 03:06:27;;;;;;;18.80;10.75;;;;;;;-1.33;69.94;101304.97;5015041;28;20057;-72
2022/03/10 03:08:52;;;;;;;15.48;8.93;;;;;;;-1.89;70.28;101299.69;5012508;28;20034;-71
2022/03/10 03:11:18;;;;;;;13.63;8.55;;;;;;;-1.61;69.43;101305.81;5014064;28;20382;-72
2022/03/10 03:13:43;;;;;;;10.65;7.47;;;;;;;-1.79;69.57;101297.78;5013935;28;20061;-71
2022/03/10 03:16:09;;;;;;;18.10;9.07;;;;;;;-1.95;69.98;101305.31;5012746;28;20045;-72
2022/03/10 03:18:34;;;;;;;12.40;7.18;;;;;;;-1.83;68.34;101300.94;5014075;28;20030;-71
2022/03/10 03:21:00;;;;;;;12.77;6.82;;;;;;;-1.86;68.58;101311.06;5014591;28;20043;-72
2022/03/10 03:23:25;;;;;;;11.70;7.50;;;;;;;-1.88;67.44;101322.03;5013819;28;20088;-72
2022/03/10 03:25:51;;;;;;;8.98;6.82;;;;;;;-1.94;68.04;101313.13;5013409;28;20545;-72
2022/03/10 03:28:18;;;;;;;12.50;7.60;;;;;;;-2.03;68.80;101316.81;5014122;28;20068;-72
2022/03/10 03:30:43;;;;;;;13.43;7.05;;;;;;;-1.69;66.58;101314.69;5013005;28;20065;-73
2022/03/10 03:33:09;;;;;;;26.95;7.65;;;;;;;-1.81;66.97;101316.50;5009964;28;20068;-72
2022/03/10 03:35:34;;;;;;;10.25;6.72;;;;;;;-1.76;67.38;101320.25;5012208;28;20034;-72
2022/03/10 03:38:00;;;;;;;26.40;9.93;;;;;;;-1.95;68.02;101319.06;5012163;28;20421;-71
2022/03/10 03:40:25;;;;;;;15.88;9.18;;;;;;;-2.01;68.93;101310.09;5007502;28;20042;-72
2022/03/10 03:42:51;;;;;;;13.57;8.90;;;;;;;-2.35;69.38;101319.03;5012857;28;20481;-71
2022/03/10 03:45:16;;;;;;;14.13;9.23;;;;;;;-2.07;68.64;101325.97;5011344;28;20076;-71
2022/03/10 03:47:42;;;;;;;14.32;8.60;;;;;;;-2.03;68.72;101330.53;5009773;28;20054;-71
2022/03/10 03:50:08;;;;;;;14.07;8.93;;;;;;;-1.74;68.07;101326.38;5010218;28;20057;-71
2022/03/10 03:52:34;;;;;;;15.95;8.82;;;;;;;-1.85;67.61;101332.50;5010789;28;20038;-71
2022/03/10 03:55:00;;;;;;;17.20;10.13;;;;;;;-1.97;67.97;101333.53;5009699;28;20873;-71
2022/03/10 03:57:25;;;;;;;16.42;9.90;;;;;;;-2.04;68.46;101333.00;5010992;28;20076;-71
2022/03/10 03:59:51;;;;;;;12.73;8.48;;;;;;;-1.84;67.77;101326.59;5011035;28;20042;-71
2022/03/10 04:02:16;;;;;;;16.92;8.80;;;;;;;-1.82;68.65;101335.31;5005373;28;20173;-71
2022/03/10 04:04:41;;;;;;;15.95;10.10;;;;;;;-1.90;67.59;101334.78;5003430;28;20080;-71
2022/03/10 04:07:07;;;;;;;16.25;8.32;;;;;;;-1.96;68.56;101342.13;5012401;28;20514;-71
2022/03/10 04:09:32;;;;;;;14.25;8.65;;;;;;;-2.12;68.84;101345.38;5010165;28;20120;-71
2022/03/10 04:11:58;;;;;;;18.73;10.77;;;;;;;-2.10;68.58;101328.38;5010173;28;20466;-71
2022/03/10 04:14:23;;;;;;;14.85;9.75;;;;;;;-2.21;69.32;101345.63;5008721;28;20049;-71
2022/03/10 04:16:49;;;;;;;14.23;8.60;;;;;;;-2.58;69.77;101347.41;5010023;28;20332;-71
2022/03/10 04:19:14;;;;;;;13.73;9.05;;;;;;;-2.46;69.29;101343.13;5009333;28;20030;-71
2022/03/10 04:21:40;;;;;;;14.52;8.70;;;;;;;-2.10;68.80;101353.19;5009035;28;20030;-71
2022/03/10 04:24:07;;;;;;;13.35;8.63;;;;;;;-2.27;69.03;101336.63;5011246;28;20037;-72
2022/03/10 04:26:33;;;;;;;13.05;9.18;;;;;;;-2.38;69.78;101349.66;5004749;28;20050;-71
2022/03/10 04:28:58;;;;;;;16.77;9.60;;;;;;;-2.39;69.71;101332.47;5004333;28;20054;-72
2022/03/10 04:31:35;;;;;;;16.25;10.43;;;;;;;-2.24;70.09;101354.84;4995904;28;20133;-72
2022/03/10 04:34:01;;;;;;;13.38;8.38;;;;;;;-2.31;69.28;101337.25;5007622;28;20369;-71
2022/03/10 04:36:26;;;;;;;14.00;9.10;;;;;;;-2.39;69.42;101346.97;5009355;28;20064;-72
2022/03/10 04:38:52;;;;;;;17.73;8.65;;;;;;;-2.44;69.51;101351.81;5008945;28;20038;-71
2022/03/10 04:41:17;;;;;;;14.85;9.02;;;;;;;-2.45;69.40;101356.88;5006313;28;20663;-71
2022/03/10 04:43:43;;;;;;;13.55;9.15;;;;;;;-1.97;68.12;101363.47;5007898;28;20074;-71
2022/03/10 04:46:08;;;;;;;12.68;8.88;;;;;;;-2.51;68.04;101353.88;5009546;28;20045;-71
2022/03/10 04:48:34;;;;;;;15.20;7.72;;;;;;;-2.36;68.81;101376.38;5009760;28;20030;-72
2022/03/10 04:51:00;;;;;;;13.02;8.00;;;;;;;-2.21;68.44;101368.78;5009271;28;20061;-71
2022/03/10 04:53:26;;;;;;;13.55;8.15;;;;;;;-2.16;68.05;101382.81;5009087;28;20045;-73
2022/03/10 04:55:52;;;;;;;13.45;9.80;;;;;;;-2.22;67.63;101387.56;5008283;28;20229;-72
2022/03/10 04:58:17;;;;;;;18.58;11.25;;;;;;;-2.30;67.49;101391.28;5007686;28;20116;-71
2022/03/10 05:00:43;;;;;;;15.15;9.82;;;;;;;-2.12;67.48;101396.78;5010015;28;20463;-72
2022/03/10 05:03:08;;;;;;;18.48;10.30;;;;;;;-2.11;67.32;101393.41;5008561;28;20540;-71
2022/03/10 05:05:34;;;;;;;24.30;10.90;;;;;;;-2.44;67.61;101403.19;5005368;28;20045;-71
2022/03/10 05:07:59;;;;;;;17.90;10.70;;;;;;;-2.12;67.32;101395.09;5007809;28;20482;-71
2022/03/10 05:10:25;;;;;;;13.02;9.70;;;;;;;-2.22;67.13;101396.97;5008560;28;20045;-71
2022/03/10 05:12:54;;;;;;;20.50;9.20;;;;;;;-2.25;68.25;101394.16;5008500;28;20064;-72
2022/03/10 05:15:22;;;;;;;22.60;12.20;;;;;;;-2.01;66.55;101393.25;5001179;28;20037;-72
2022/03/10 05:17:49;;;;;;;30.75;16.25;;;;;;;-2.08;66.56;101405.56;5006203;28;20045;-73
2022/03/10 05:20:14;;;;;;;36.08;17.75;;;;;;;-2.53;68.41;101411.97;5007086;28;20381;-75
2022/03/10 05:22:49;;;;;;;19.02;10.55;;;;;;;-2.44;67.69;101418.63;5007616;28;20054;-73
2022/03/10 05:25:16;;;;;;;16.02;9.45;;;;;;;-2.61;67.69;101417.47;5006144;28;20050;-72
2022/03/10 05:27:43;;;;;;;16.05;7.80;;;;;;;-2.52;66.92;101426.63;5007828;28;20068;-73
2022/03/10 05:30:09;;;;;;;15.40;8.68;;;;;;;-2.48;67.39;101426.94;5006933;28;20487;-74
2022/03/10 05:32:35;;;;;;;10.77;6.80;;;;;;;-2.48;68.29;101436.28;5002782;28;20393;-72
2022/03/10 05:35:01;;;;;;;10.73;7.03;;;;;;;-2.50;67.48;101448.16;5006542;28;20038;-72
2022/03/10 05:37:27;;;;;;;11.40;5.75;;;;;;;-2.40;67.20;101436.03;5007864;28;20042;-72
2022/03/10 05:39:53;;;;;;;15.40;9.00;;;;;;;-2.31;67.07;101440.94;5005774;28;20120;-73
2022/03/10 05:42:18;;;;;;;10.68;7.28;;;;;;;-2.10;66.30;101444.06;5006747;28;20022;-73
2022/03/10 05:44:44;;;;;;;10.27;6.00;;;;;;;-1.80;64.68;101452.06;5005364;28;20402;-72
2022/03/10 05:47:09;;;;;;;19.58;8.80;;;;;;;-1.70;65.04;101455.31;5007014;28;20453;-74
2022/03/10 05:49:36;;;;;;;13.07;9.07;;;;;;;-1.92;64.77;101444.38;5007898;28;20359;-73
2022/03/10 05:52:02;;;;;;;10.73;5.68;;;;;;;-1.98;64.52;101454.28;5007139;28;20042;-75
2022/03/10 05:54:27;;;;;;;15.88;5.50;;;;;;;-1.75;63.89;101455.81;5007580;28;20378;-75
2022/03/10 05:56:52;;;;;;;12.85;5.60;;;;;;;-1.77;63.09;101449.69;5000257;28;20046;-74
2022/03/10 05:59:19;;;;;;;9.70;5.47;;;;;;;-1.68;63.90;101460.56;5008107;28;20057;-77
2022/03/10 06:01:45;;;;;;;15.60;7.25;;;;;;;-1.53;62.41;101453.84;5006185;28;20077;-77
2022/03/10 06:04:11;;;;;;;13.25;7.38;;;;;;;-1.53;64.00;101447.81;5006411;28;20041;-76
2022/03/10 06:06:36;;;;;;;16.23;7.13;;;;;;;-1.35;63.30;101473.88;5003620;28;20057;-78
2022/03/10 06:09:02;;;;;;;14.85;6.05;;;;;;;-1.47;62.83;101466.25;5009019;28;20458;-78
2022/03/10 06:11:27;;;;;;;9.70;6.78;;;;;;;-1.49;62.35;101466.13;5007762;28;20474;-75
2022/03/10 06:13:53;;;;;;;8.88;4.53;;;;;;;-1.39;62.35;101477.91;5008741;28;20141;-78
2022/03/10 06:16:18;;;;;;;8.43;5.15;;;;;;;-1.32;62.38;101469.78;5008206;28;20482;-76
2022/03/10 06:18:44;;;;;;;12.85;4.75;;;;;;;-1.23;61.55;101476.34;5007877;28;20037;-80
2022/03/10 06:21:09;;;;;;;10.93;4.90;;;;;;;-1.29;61.47;101479.41;5009424;28;20331;-73
2022/03/10 06:23:35;;;;;;;11.98;6.05;;;;;;;-1.11;62.61;101464.25;5006882;28;20065;-74
2022/03/10 06:26:00;;;;;;;9.20;4.80;;;;;;;-1.15;61.53;101482.88;5006800;28;20042;-73
2022/03/10 06:28:25;;;;;;;6.53;4.50;;;;;;;-1.14;61.24;101471.78;5003218;28;20096;-74
2022/03/10 06:30:51;;;;;;;8.63;5.32;;;;;;;-1.15;61.47;101476.06;5005437;28;20449;-74
2022/03/10 06:33:16;;;;;;;9.02;3.95;;;;;;;-1.11;60.71;101472.88;5007972;28;20048;-74
2022/03/10 06:35:42;;;;;;;9.27;4.97;;;;;;;-1.20;60.61;101468.81;5007175;28;20088;-75
2022/03/10 06:38:08;;;;;;;9.02;5.50;;;;;;;-0.95;61.31;101469.59;5006967;28;20052;-75
2022/03/10 06:40:34;;;;;;;8.57;4.70;;;;;;;-1.05;61.00;101469.81;5007020;28;20054;-72
2022/03/10 06:42:59;;;;;;;9.57;4.82;;;;;;;-1.01;61.69;101473.44;5038951;28;20048;-72
2022/03/10 06:45:25;;;;;;;8.43;4.35;;;;;;;-0.80;61.17;101490.25;5007726;28;20034;-73
2022/03/10 06:47:50;;;;;;;7.10;4.28;;;;;;;-0.89;61.48;101481.94;5007360;28;20050;-73
2022/03/10 06:50:16;;;;;;;26.42;11.77;;;;;;;-0.90;61.00;101490.50;5007650;28;20084;-73
2022/03/10 06:52:41;;;;;;;12.27;6.28;;;;;;;-0.99;62.56;101482.16;5007830;28;20061;-73
2022/03/10 06:55:07;;;;;;;11.10;6.32;;;;;;;-0.92;61.59;101487.81;5006957;28;20077;-73
2022/03/10 06:57:34;;;;;;;16.77;7.68;;;;;;;-0.93;61.38;101493.75;5006919;28;20392;-73
2022/03/10 07:00:00;;;;;;;17.20;8.45;;;;;;;-0.87;62.73;101473.56;5006551;28;20164;-73
2022/03/10 07:02:27;;;;;;;11.80;5.47;;;;;;;-0.99;61.95;101490.78;5008019;28;20046;-73
2022/03/10 07:04:52;;;;;;;10.07;6.68;;;;;;;-0.92;62.63;101490.38;4997978;28;20054;-73
2022/03/10 07:07:18;;;;;;;10.20;6.38;;;;;;;-0.83;61.89;101495.22;5008063;28;20038;-73
2022/03/10 07:09:43;;;;;;;11.35;6.18;;;;;;;-0.93;62.04;101508.34;5007176;28;20441;-73
2022/03/10 07:12:09;;;;;;;10.75;5.47;;;;;;;-0.94;62.77;101499.69;5007768;28;20458;-75
2022/03/10 07:14:35;;;;;;;16.23;7.22;;;;;;;-0.75;62.99;101486.31;5006596;28;20057;-74
2022/03/10 07:17:00;;;;;;;10.80;5.30;;;;;;;-0.79;63.50;101493.75;5007190;28;20521;-74
2022/03/10 07:19:26;;;;;;;7.82;4.60;;;;;;;-0.80;62.37;101492.84;5007003;28;20042;-73
2022/03/10 07:21:51;;;;;;;11.55;5.18;;;;;;;-0.81;62.39;101503.94;4997644;28;20038;-73
2022/03/10 07:24:17;;;;;;;12.90;5.75;;;;;;;-0.91;62.57;101512.78;5011830;28;20461;-73
2022/03/10 07:26:42;;;;;;;21.55;4.88;;;;;;;-0.94;62.75;101517.72;5011386;28;20049;-73
2022/03/10 07:29:08;;;;;;;10.55;5.88;;;;;;;-0.72;62.51;101491.66;5011033;28;20639;-73
2022/03/10 07:31:33;;;;;;;14.77;6.97;;;;;;;-0.74;62.92;101505.25;5008443;28;20780;-73
2022/03/10 07:33:59;;;;;;;8.15;5.30;;;;;;;-0.72;63.99;101501.97;5010991;28;20497;-73
2022/03/10 07:36:24;;;;;;;9.13;4.68;;;;;;;-0.92;63.77;101495.53;5011921;28;20037;-73
2022/03/10 07:38:50;;;;;;;6.80;4.63;;;;;;;-0.98;63.53;101496.84;5011125;28;20123;-73
2022/03/10 07:41:16;;;;;;;8.45;5.25;;;;;;;-0.94;63.38;101515.16;5011236;28;20104;-74
2022/03/10 07:43:41;;;;;;;7.53;4.38;;;;;;;-0.89;64.02;101489.69;5011030;28;20052;-73
2022/03/10 07:46:09;;;;;;;21.80;4.97;;;;;;;-0.59;64.37;101497.56;5010663;28;20038;-74
2022/03/10 07:48:35;;;;;;;8.82;4.20;;;;;;;-0.71;62.61;101496.00;5008556;28;20509;-72
2022/03/10 07:51:01;;;;;;;6.38;4.28;;;;;;;-0.58;62.60;101489.06;5010625;28;20030;-72
2022/03/10 07:53:26;;;;;;;16.05;5.90;;;;;;;-0.52;63.03;101498.03;5010575;28;20512;-73
2022/03/10 07:55:55;;;;;;;7.40;5.15;;;;;;;-0.54;62.72;101507.38;5011104;28;20049;-73
2022/03/10 07:58:25;;;;;;;8.90;5.90;;;;;;;-0.38;61.84;101511.78;5010647;28;20030;-73
2022/03/10 08:00:54;;;;;;;11.68;7.18;;;;;;;-0.16;62.12;101505.38;5009772;28;20490;-74
2022/03/10 08:03:21;;;;;;;9.65;5.38;;;;;;;-0.37;62.37;101497.22;5010460;28;20037;-75
2022/03/10 08:05:46;;;;;;;9.20;5.00;;;;;;;-0.60;61.76;101495.78;5010139;28;20084;-73
2022/03/10 08:08:13;;;;;;;14.25;6.57;;;;;;;-0.59;60.98;101493.28;5011201;28;20042;-73
2022/03/10 08:10:40;;;;;;;5.85;3.70;;;;;;;-0.49;60.26;101502.53;5009247;28;20045;-72
2022/03/10 08:13:06;;;;;;;7.75;4.68;;;;;;;-0.36;59.59;101520.50;5009705;28;20393;-73
2022/03/10 08:15:31;;;;;;;7.38;4.45;;;;;;;-0.28;61.50;101505.50;5009306;28;20037;-73
2022/03/10 08:17:57;;;;;;;8.98;5.30;;;;;;;-0.46;60.38;101487.22;5010843;28;20470;-73
2022/03/10 08:20:23;;;;;;;8.82;5.72;;;;;;;-0.01;60.17;101507.19;5010378;28;20049;-73
2022/03/10 08:22:49;;;;;;;6.60;4.13;;;;;;;-0.34;60.27;101500.88;5009912;28;20045;-73
2022/03/10 08:25:15;;;;;;;8.68;4.97;;;;;;;0.17;60.03;101507.41;5009848;28;20054;-73
2022/03/10 08:27:40;;;;;;;10.77;5.35;;;;;;;0.16;59.83;101505.63;5010182;28;20477;-73
2022/03/10 08:30:07;;;;;;;6.97;4.10;;;;;;;0.26;59.41;101517.38;5010318;28;20121;-73
2022/03/10 08:32:32;;;;;;;7.78;5.40;;;;;;;0.10;59.11;101512.13;5009260;28;20046;-73
2022/03/10 08:34:58;;;;;;;10.00;4.95;;;;;;;-0.18;58.90;101525.03;5009227;28;20087;-73
2022/03/10 08:37:23;;;;;;;11.05;5.88;;;;;;;-0.11;59.36;101506.56;5010024;28;20034;-73
2022/03/10 08:39:49;;;;;;;15.43;4.60;;;;;;;0.04;60.74;101522.94;5008651;28;20046;-73
2022/03/10 08:42:14;;;;;;;6.72;4.10;;;;;;;0.02;58.44;101521.94;5010817;28;20040;-72
2022/03/10 08:44:40;;;;;;;5.95;4.05;;;;;;;0.02;58.14;101523.66;5008953;28;20038;-72
2022/03/10 08:47:05;;;;;;;8.35;4.85;;;;;;;0.05;57.67;101521.25;5008637;28;20037;-72
2022/03/10 08:49:31;;;;;;;9.02;5.30;;;;;;;-0.11;57.97;101529.75;5008446;28;20042;-73
2022/03/10 08:51:56;;;;;;;21.33;5.53;;;;;;;0.54;57.46;101518.97;5008767;28;20053;-72
2022/03/10 08:54:22;;;;;;;11.77;5.18;;;;;;;0.55;57.12;101513.03;5008857;28;20029;-75
2022/03/10 08:56:47;;;;;;;7.68;4.72;;;;;;;0.35;57.70;101515.34;5009157;28;20041;-75
2022/03/10 08:59:13;;;;;;;12.07;5.57;;;;;;;0.33;57.84;101514.38;5008907;28;20080;-76
2022/03/10 09:01:38;;;;;;;8.73;5.22;;;;;;;0.51;58.01;101518.81;5008322;28;20061;-73
2022/03/10 09:04:04;;;;;;;18.67;7.38;;;;;;;1.23;57.33;101538.44;5007748;28;20046;-72
2022/03/10 09:06:29;;;;;;;9.60;4.68;;;;;;;0.94;56.61;101526.47;5009264;28;20505;-74
2022/03/10 09:08:55;;;;;;;7.10;4.60;;;;;;;0.66;57.93;101530.06;5009649;28;20474;-74
2022/03/10 09:11:22;;;;;;;9.73;5.78;;;;;;;0.66;57.79;101529.16;5004461;28;20045;-74
2022/03/10 09:13:48;;;;;;;9.73;5.78;;;;;;;0.19;59.18;101541.94;5008910;28;20034;-74
2022/03/10 09:16:17;;;;;;;9.73;5.55;;;;;;;0.26;59.48;101539.69;5007517;28;20065;-74
2022/03/10 09:18:45;;;;;;;10.48;6.40;;;;;;;0.71;59.28;101535.47;5008235;28;20062;-74
2022/03/10 09:21:11;;;;;;;8.35;5.38;;;;;;;0.50;58.05;101517.03;5007519;28;20033;-73
2022/03/10 09:23:36;;;;;;;17.08;6.50;;;;;;;0.45;57.69;101526.22;5030837;28;20049;-73
2022/03/10 09:26:02;;;;;;;8.75;5.25;;;;;;;0.52;58.18;101508.59;5008833;28;20115;-72
2022/03/10 09:28:27;;;;;;;8.80;5.38;;;;;;;0.34;57.52;101525.56;5008384;28;20046;-73
2022/03/10 09:30:53;;;;;;;9.02;4.82;;;;;;;0.26;57.71;101509.66;5003879;28;20038;-72
2022/03/10 09:33:18;;;;;;;8.68;5.95;;;;;;;0.47;56.72;101532.34;5008635;28;20034;-73
2022/03/10 09:35:44;;;;;;;7.70;5.22;;;;;;;0.44;57.98;101525.31;5008738;28;20477;-73
2022/03/10 09:38:10;;;;;;;8.40;5.22;;;;;;;0.58;56.99;101520.94;5007355;28;20131;-73
2022/03/10 09:40:35;;;;;;;11.90;7.15;;;;;;;0.47;56.70;101511.69;5008707;28;20045;-73
2022/03/10 09:43:01;;;;;;;8.98;7.55;;;;;;;0.43;56.40;101532.97;5007514;28;20046;-73
2022/03/10 09:45:29;;;;;;;11.38;7.03;;;;;;;0.23;59.61;101540.41;5009571;28;20108;-73
2022/03/10 09:47:55;;;;;;;8.68;5.85;;;;;;;-0.05;61.53;101518.13;5008055;28;20034;-73
2022/03/10 09:50:20;;;;;;;13.00;7.65;;;;;;;0.25;62.21;101556.00;5008973;28;20152;-73
2022/03/10 09:52:46;;;;;;;10.88;7.57;;;;;;;-0.25;64.72;101544.38;5008630;28;20049;-73
2022/03/10 09:55:15;;;;;;;9.32;5.55;;;;;;;-0.24;67.30;101557.34;5007986;28;20045;-72
2022/03/10 09:57:42;;;;;;;14.13;7.93;;;;;;;0.05;67.73;101549.63;5008835;28;20044;-73
2022/03/10 10:00:10;;;;;;;13.07;8.77;;;;;;;0.18;68.53;101570.22;5008190;28;20026;-73
2022/03/10 10:02:37;;;;;;;17.55;9.13;;;;;;;0.65;67.50;101561.81;4999720;28;20050;-73
2022/03/10 10:05:18;;;;;;;24.00;8.23;;;;;;;0.29;67.15;101568.31;5007736;28;20054;-73
2022/03/10 10:08:00;;;;;;;10.63;5.85;;;;;;;-0.22;68.05;101550.59;5007424;28;20046;-73
2022/03/10 10:10:30;;;;;;;20.08;8.18;;;;;;;-0.20;68.05;101558.47;5008293;28;20038;-72
2022/03/10 10:12:55;;;;;;;13.40;7.00;;;;;;;0.04;68.11;101553.00;5007459;28;20364;-73
2022/03/10 10:15:21;;;;;;;11.95;6.55;;;;;;;-0.04;67.81;101557.72;5008385;28;20528;-72
2022/03/10 10:17:55;;;;;;;8.82;6.63;;;;;;;0.07;66.27;101551.53;5007994;28;20046;-72
2022/03/10 10:20:20;;;;;;;15.48;7.78;;;;;;;0.32;64.97;101546.13;5006860;28;20045;-72
2022/03/10 10:22:48;;;;;;;11.68;7.72;;;;;;;0.34;65.16;101541.94;5007232;28;20045;-72
2022/03/10 10:25:20;;;;;;;9.90;7.97;;;;;;;0.97;59.79;101524.94;5005721;28;20099;-72
2022/03/10 10:27:46;;;;;;;13.48;7.53;;;;;;;0.97;59.27;101543.03;5007654;28;20025;-73
2022/03/10 10:30:12;;;;;;;14.30;8.23;;;;;;;1.47;60.15;101544.97;5008108;28;20030;-73
2022/03/10 10:32:52;;;;;;;10.52;7.35;;;;;;;0.79;61.87;101552.31;5002984;28;20046;-72
2022/03/10 10:35:22;;;;;;;21.88;14.68;;;;;;;0.40;60.21;101537.16;5007019;28;20041;-73
2022/03/10 10:37:50;;;;;;;11.90;6.68;;;;;;;0.13;58.61;101564.78;5007259;28;20481;-73
2022/03/10 10:40:34;;;;;;;13.40;7.18;;;;;;;0.23;60.35;101568.81;5005402;28;20045;-73
2022/03/10 10:43:03;;;;;;;18.50;8.20;;;;;;;0.43;62.80;101563.97;5006754;28;20520;-72
2022/03/10 10:45:34;;;;;;;10.93;6.63;;;;;;;0.29;66.62;101560.56;5005060;28;20034;-72
2022/03/10 10:48:09;;;;;;;10.18;7.22;;;;;;;0.15;68.12;101564.88;5006278;28;20030;-73
2022/03/10 10:50:37;;;;;;;14.60;10.55;;;;;;;0.16;66.33;101548.59;5006163;28;20042;-73
2022/03/10 10:53:04;;;;;;;8.32;6.15;;;;;;;-0.08;61.43;101558.31;5006855;28;20148;-73
2022/03/10 10:55:34;;;;;;;11.27;7.55;;;;;;;0.44;59.73;101553.72;5009150;28;20135;-73
2022/03/10 10:58:08;;;;;;;10.50;7.47;;;;;;;0.88;57.66;101544.19;5011173;28;20136;-73
2022/03/10 11:00:59;;;;;;;12.68;7.18;;;;;;;1.72;55.12;101541.13;5011513;28;20096;-73
2022/03/10 11:03:28;;;;;;;12.05;5.70;;;;;;;1.12;53.89;101535.22;5009846;28;20097;-74
2022/03/10 11:05:54;;;;;;;13.23;7.00;;;;;;;1.50;54.30;101528.75;5012005;28;20050;-74
2022/03/10 11:08:25;;;;;;;8.55;4.97;;;;;;;1.38;53.14;101553.91;5011127;28;20048;-73
2022/03/10 11:10:52;;;;;;;11.57;7.32;;;;;;;1.58;52.71;101548.13;5011863;28;20044;-74
2022/03/10 11:13:17;;;;;;;11.38;6.13;;;;;;;1.34;52.57;101528.69;5002817;28;20048;-72
2022/03/10 11:15:44;;;;;;;10.80;6.60;;;;;;;1.23;54.37;101557.41;5011983;28;20022;-74
2022/03/10 11:18:12;;;;;;;9.75;6.35;;;;;;;0.83;55.19;101546.50;5011212;28;20029;-73
2022/03/10 11:20:44;;;;;;;10.43;6.70;;;;;;;1.10;55.39;101538.53;5011001;28;20115;-73
2022/03/10 11:23:28;;;;;;;13.77;8.07;;;;;;;1.20;54.97;101539.16;5008133;28;20068;-73
2022/03/10 11:26:19;;;;;;;10.65;7.35;;;;;;;1.63;53.97;101531.16;5009735;28;20081;-73